Rodney, Canada
Current Conditions -  °F | °C
As of 4:00 PM on Wednesday 17 Dec 2014 (Local Time) from CYCK Reporting Station
Overcast Overcast  
Wind Chill: 21°   Ceiling: 2700
Heat Index: 32°   Visibility: 9mi
Dew Point: 27°   Wind: 17mph
Humidity: 80%   Direction: 280°W
Pressure: 30.05"   Gusts: NA
Location:  42.57°N, 81.68°W
Report Text: CYCK 172100Z AUTO 28015KT 9SM OVC027 M00/M03 A3005 RMK SLP184
Loading
Personal Weather Stations






























Interactive Weather Map New forecast layout! Learn more

10-Day Weather Forecast

Advertisements
Track Severe Weather on mobile